Time;durP1;ratioP1;P1;durP2;ratioP2;P2;SDS_P1;SDS_P2;PMS_P1;PMS_P2;Temp;Humidity;BMP_temperature;BMP_pressure;BME280_temperature;BME280_humidity;BME280_pressure;Samples;Min_cycle;Max_cycle;Signal;HPM_P1;HPM_P2
2023/09/04 00:09:50;;;;;;;0.60;0.40;;;;;;;21.35;77.66;102586.81;21111086;28;20078;-70
2023/09/04 00:19:52;;;;;;;0.52;0.52;;;;;;;21.32;77.45;102578.91;21108240;28;20063;-70
2023/09/04 00:29:53;;;;;;;0.40;0.40;;;;;;;21.30;77.26;102581.72;21107122;28;20063;-70
2023/09/04 00:39:55;;;;;;;0.47;0.45;;;;;;;21.26;76.89;102573.00;21095766;28;20056;-70
2023/09/04 00:49:57;;;;;;;0.50;0.50;;;;;;;21.24;76.42;102572.25;21093390;28;20062;-70
2023/09/04 01:00:05;;;;;;;0.50;0.50;;;;;;;21.15;76.11;102564.81;21114026;28;20051;-70
2023/09/04 01:10:12;;;;;;;0.70;0.70;;;;;;;21.14;75.64;102566.66;21107888;28;20044;-69
2023/09/04 01:20:23;;;;;;;1.25;0.60;;;;;;;21.11;75.13;102549.78;21095181;28;20042;-70
2023/09/04 01:30:38;;;;;;;0.50;0.50;;;;;;;21.09;74.93;102549.03;21091530;28;20055;-70
2023/09/04 01:40:39;;;;;;;;;;;;;;;21.07;74.35;102542.88;21120481;28;20104;-70
2023/09/04 01:50:41;;;;;;;0.60;0.35;;;;;;;21.03;74.12;102535.97;21112202;28;19928;-70
2023/09/04 02:00:45;;;;;;;0.40;0.40;;;;;;;21.01;73.68;102528.84;21075232;28;20415;-70
2023/09/04 02:10:51;;;;;;;0.40;0.40;;;;;;;21.00;73.55;102520.84;21085967;28;20063;-70
2023/09/04 02:20:53;;;;;;;0.40;0.40;;;;;;;20.97;73.26;102524.63;21110108;28;20519;-70
2023/09/04 02:30:54;;;;;;;0.40;0.40;;;;;;;20.97;73.10;102529.16;21100589;28;20055;-70
2023/09/04 02:40:56;;;;;;;0.60;0.60;;;;;;;20.96;73.35;102525.63;21085748;28;20496;-70
2023/09/04 02:51:01;;;;;;;0.30;0.30;;;;;;;21.01;73.15;102522.56;21081400;28;20092;-70
2023/09/04 03:01:03;;;;;;;0.45;0.30;;;;;;;21.01;73.08;102517.16;21103286;28;20043;-70
2023/09/04 03:11:13;;;;;;;0.30;0.30;;;;;;;21.01;72.84;102506.31;21097541;28;20135;-70
2023/09/04 03:21:15;;;;;;;0.30;0.30;;;;;;;20.99;72.61;102503.72;21096069;28;20078;-70
2023/09/04 03:31:17;;;;;;;0.32;0.30;;;;;;;20.98;72.46;102507.41;21098585;28;20075;-70
2023/09/04 03:41:20;;;;;;;0.40;0.40;;;;;;;20.95;72.22;102506.75;21120828;28;20173;-70
2023/09/04 03:51:22;;;;;;;0.40;0.40;;;;;;;20.94;71.82;102502.34;21116757;28;20161;-70
2023/09/04 04:01:24;;;;;;;0.20;0.20;;;;;;;20.93;71.73;102490.66;21083320;28;20105;-70
2023/09/04 04:11:27;;;;;;;0.28;0.28;;;;;;;20.90;71.52;102499.00;21082914;28;20131;-70
2023/09/04 04:21:28;;;;;;;0.30;0.30;;;;;;;20.88;71.44;102505.50;21099412;28;20062;-70
2023/09/04 04:31:30;;;;;;;0.10;0.10;;;;;;;20.88;71.13;102500.97;21108491;28;20064;-69
2023/09/04 04:41:33;;;;;;;0.20;0.20;;;;;;;20.87;70.77;102510.06;21093110;28;20052;-70
2023/09/04 04:51:37;;;;;;;0.20;0.20;;;;;;;20.83;70.49;102504.03;21087482;28;20059;-70
2023/09/04 05:01:39;;;;;;;0.35;0.30;;;;;;;20.81;70.23;102505.13;21073831;28;20048;-70
2023/09/04 05:11:41;;;;;;;0.20;0.20;;;;;;;20.80;69.95;102506.13;21073683;28;20607;-70
2023/09/04 05:21:43;;;;;;;0.30;0.30;;;;;;;20.77;69.89;102496.34;21071287;28;20404;-70
2023/09/04 05:31:57;;;;;;;0.40;0.40;;;;;;;20.71;69.78;102494.09;21069767;28;20056;-70
2023/09/04 05:41:59;;;;;;;0.30;0.30;;;;;;;20.75;69.75;102500.13;21061581;28;20040;-69
2023/09/04 05:52:01;;;;;;;0.30;0.30;;;;;;;20.75;69.95;102500.13;21045367;28;20109;-69
2023/09/04 06:02:03;;;;;;;0.75;0.30;;;;;;;20.75;70.19;102495.59;21089232;28;20051;-69
2023/09/04 06:12:06;;;;;;;0.43;0.40;;;;;;;20.72;70.39;102485.84;21074870;28;20055;-68
2023/09/04 06:22:08;;;;;;;0.30;0.30;;;;;;;20.81;70.59;102497.88;21086658;28;20044;-70
2023/09/04 06:32:10;;;;;;;0.40;0.40;;;;;;;20.82;70.75;102501.44;21092526;28;20524;-69
2023/09/04 06:42:12;;;;;;;0.45;0.43;;;;;;;20.85;70.83;102496.66;21051909;28;20732;-70
2023/09/04 06:52:14;;;;;;;1.27;0.50;;;;;;;20.89;71.14;102497.28;21038350;28;20056;-70
2023/09/04 07:02:16;;;;;;;1.40;0.82;;;;;;;20.93;71.49;102506.91;21066582;28;20060;-69
2023/09/04 07:12:18;;;;;;;2.08;1.05;;;;;;;21.04;72.13;102507.91;21070968;28;20051;-69
2023/09/04 07:22:20;;;;;;;1.50;0.90;;;;;;;21.15;72.68;102511.53;21090563;28;20048;-68
2023/09/04 07:32:22;;;;;;;2.15;1.00;;;;;;;21.28;73.38;102500.59;21085637;28;20197;-68
2023/09/04 07:42:24;;;;;;;0.80;0.80;;;;;;;21.42;74.08;102504.91;21064839;28;20044;-70
2023/09/04 07:52:26;;;;;;;1.27;0.77;;;;;;;21.57;74.83;102502.84;21085870;28;20106;-70
2023/09/04 08:02:28;;;;;;;2.92;1.38;;;;;;;21.73;76.00;102516.06;21068653;28;20040;-71
2023/09/04 08:12:30;;;;;;;2.90;1.15;;;;;;;21.90;76.02;102504.88;21065802;28;20058;-70
2023/09/04 08:22:32;;;;;;;2.17;0.90;;;;;;;21.98;76.89;102496.97;21057771;28;20047;-71
2023/09/04 08:32:33;;;;;;;1.95;1.30;;;;;;;22.06;76.95;102491.78;21061618;28;20052;-71
2023/09/04 08:42:37;;;;;;;1.02;0.95;;;;;;;22.08;76.47;102483.53;21062209;28;20047;-70
2023/09/04 08:52:40;;;;;;;;;;;;;;;22.19;75.78;102488.91;21064589;28;20462;-70
2023/09/04 09:02:45;;;;;;;1.85;1.17;;;;;;;22.26;75.33;102465.72;21050471;28;19939;-68
2023/09/04 09:12:48;;;;;;;1.30;1.20;;;;;;;22.37;74.76;102464.81;21049256;28;20083;-68
2023/09/04 09:22:50;;;;;;;1.90;1.33;;;;;;;22.46;74.48;102457.81;21055132;28;20582;-68
2023/09/04 09:32:53;;;;;;;1.45;1.10;;;;;;;22.48;73.92;102444.09;21060105;28;20059;-68
2023/09/04 09:42:55;;;;;;;1.63;1.30;;;;;;;22.54;73.83;102457.19;21061739;28;20450;-68
2023/09/04 09:52:58;;;;;;;1.48;1.38;;;;;;;22.56;73.17;102452.47;21048340;28;20053;-69
2023/09/04 10:03:00;;;;;;;1.23;1.13;;;;;;;22.53;73.39;102437.31;21059951;28;20044;-69
2023/09/04 10:13:16;;;;;;;1.08;0.90;;;;;;;22.50;73.58;102439.41;21067598;28;20060;-69
2023/09/04 10:23:19;;;;;;;1.45;1.20;;;;;;;22.43;73.10;102407.31;21069169;28;20075;-70
2023/09/04 10:33:21;;;;;;;1.20;1.10;;;;;;;22.50;73.50;102429.41;21082186;28;20052;-69
2023/09/04 10:43:38;;;;;;;3.15;1.10;;;;;;;22.52;73.44;102423.84;21082597;28;20458;-68
2023/09/04 10:53:41;;;;;;;1.80;1.40;;;;;;;22.54;73.64;102390.16;21079293;28;20393;-68
2023/09/04 11:03:43;;;;;;;1.15;1.05;;;;;;;22.56;73.34;102390.06;21075828;28;20063;-69
2023/09/04 11:13:45;;;;;;;2.00;1.30;;;;;;;22.58;72.95;102375.34;21062556;28;20070;-68
2023/09/04 11:23:47;;;;;;;1.45;1.08;;;;;;;22.59;72.78;102366.19;21056641;28;20811;-70
2023/09/04 11:33:50;;;;;;;2.38;1.20;;;;;;;22.56;72.91;102357.47;21083650;28;20519;-69
2023/09/04 11:43:52;;;;;;;2.58;0.93;;;;;;;22.58;72.49;102356.34;21067797;28;20102;-69
2023/09/04 11:53:54;;;;;;;1.33;1.00;;;;;;;22.57;72.74;102334.78;21089564;28;20090;-70
2023/09/04 12:03:55;;;;;;;1.50;1.33;;;;;;;22.58;72.96;102322.94;21070337;28;20051;-70
2023/09/04 12:14:06;;;;;;;1.50;1.05;;;;;;;22.61;72.55;102322.66;21068329;28;20048;-68
2023/09/04 12:24:12;;;;;;;1.20;1.10;;;;;;;22.64;72.88;102319.69;21061047;28;20056;-68
2023/09/04 12:34:14;;;;;;;1.42;1.00;;;;;;;22.65;73.27;102318.69;21072713;28;20135;-69
2023/09/04 12:44:16;;;;;;;2.45;1.30;;;;;;;22.65;72.73;102296.97;21082639;28;20055;-67
2023/09/04 12:54:18;;;;;;;2.03;0.90;;;;;;;22.66;73.09;102292.38;21073218;28;20138;-68
2023/09/04 13:04:21;;;;;;;1.38;1.17;;;;;;;22.63;73.05;102285.38;21085286;28;20606;-68
2023/09/04 13:14:23;;;;;;;1.25;1.15;;;;;;;22.63;72.69;102277.25;21066551;28;20511;-68
2023/09/04 13:24:24;;;;;;;1.45;1.33;;;;;;;22.61;72.51;102254.81;21108289;27;20174;-68
2023/09/04 13:34:26;;;;;;;1.15;1.05;;;;;;;22.59;72.65;102233.22;21074532;28;20052;-68
2023/09/04 13:44:28;;;;;;;1.20;1.10;;;;;;;22.58;73.24;102227.94;21071309;28;20108;-69
2023/09/04 13:54:30;;;;;;;1.52;1.30;;;;;;;22.57;72.72;102231.66;21073028;28;20056;-68
2023/09/04 14:04:31;;;;;;;1.20;1.10;;;;;;;22.55;72.62;102220.91;21071179;28;20040;-68
2023/09/04 14:14:33;;;;;;;1.30;1.20;;;;;;;22.53;72.86;102217.47;21062479;28;20071;-68
2023/09/04 14:24:35;;;;;;;1.75;1.30;;;;;;;22.50;72.92;102214.16;21071295;28;20457;-68
2023/09/04 14:34:37;;;;;;;1.50;1.10;;;;;;;22.46;72.81;102208.16;21059566;28;20066;-69
2023/09/04 14:44:39;;;;;;;1.25;1.05;;;;;;;22.40;73.34;102204.09;21080541;28;20048;-69
2023/09/04 14:54:44;;;;;;;1.52;1.15;;;;;;;22.41;72.90;102213.09;21080306;28;20464;-69
2023/09/04 15:04:46;;;;;;;2.40;1.20;;;;;;;22.37;73.18;102195.38;21091755;28;20057;-59
2023/09/04 15:14:47;;;;;;;1.15;1.05;;;;;;;22.12;74.09;102173.97;21074653;28;20642;-70
2023/09/04 15:24:49;;;;;;;1.48;1.10;;;;;;;21.84;75.65;102157.38;21072023;28;20474;-67
2023/09/04 15:34:51;;;;;;;1.55;1.33;;;;;;;21.73;76.60;102150.16;21082256;28;20048;-68
2023/09/04 15:44:53;;;;;;;1.35;1.13;;;;;;;21.70;76.82;102145.00;21076101;28;20048;-67
2023/09/04 15:54:54;;;;;;;2.25;1.30;;;;;;;21.70;77.89;102127.91;21074930;28;20093;-68
2023/09/04 16:04:56;;;;;;;1.73;1.55;;;;;;;21.72;78.31;102120.50;21086570;28;20097;-76
2023/09/04 16:14:58;;;;;;;1.45;1.05;;;;;;;21.79;78.74;102118.97;21092071;28;20075;-67
2023/09/04 16:25:00;;;;;;;1.40;1.30;;;;;;;21.90;82.06;102119.88;21073990;28;20045;-68
2023/09/04 16:35:03;;;;;;;1.92;1.73;;;;;;;22.03;87.33;102112.38;21068266;28;20182;-67
2023/09/04 16:45:06;;;;;;;1.25;1.00;;;;;;;22.10;86.71;102116.28;21061023;28;20056;-66
2023/09/04 16:55:08;;;;;;;1.38;1.20;;;;;;;22.13;86.61;102094.31;21059456;28;20480;-66
2023/09/04 17:05:10;;;;;;;3.17;1.35;;;;;;;22.18;86.25;102102.03;21061179;28;20078;-66
2023/09/04 17:15:12;;;;;;;2.72;1.23;;;;;;;22.13;86.00;102102.47;21078879;28;20092;-70
2023/09/04 17:25:15;;;;;;;1.95;1.20;;;;;;;22.09;85.66;102092.00;21086763;28;20052;-67
2023/09/04 17:35:17;;;;;;;1.75;1.20;;;;;;;22.00;84.18;102096.38;21090618;28;20044;-66
2023/09/04 17:45:19;;;;;;;3.28;1.67;;;;;;;21.93;83.53;102108.75;21100831;28;20096;-67
2023/09/04 17:55:20;;;;;;;2.20;1.27;;;;;;;21.84;83.60;102094.16;21131598;28;20052;-69
2023/09/04 18:05:23;;;;;;;3.95;1.40;;;;;;;21.75;83.76;102097.66;21122890;28;20497;-68
2023/09/04 18:15:25;;;;;;;1.50;1.20;;;;;;;21.71;84.45;102102.50;21144296;28;20104;-68
2023/09/04 18:25:27;;;;;;;1.85;1.05;;;;;;;21.66;84.74;102110.19;21146837;28;20104;-68
2023/09/04 18:35:29;;;;;;;2.20;1.33;;;;;;;21.63;84.84;102099.53;21070811;28;20087;-68
2023/09/04 18:45:30;;;;;;;2.25;1.20;;;;;;;21.59;84.66;102085.41;21070843;28;20059;-68
2023/09/04 18:55:32;;;;;;;1.88;1.10;;;;;;;21.55;84.85;102082.09;21081652;28;20067;-68
2023/09/04 19:05:34;;;;;;;1.13;1.02;;;;;;;21.51;84.48;102075.22;21098086;28;20492;-68
2023/09/04 19:15:38;;;;;;;1.55;1.02;;;;;;;21.49;84.24;102065.53;21081601;28;20047;-68
2023/09/04 19:25:40;;;;;;;;;;;;;;;21.46;83.24;102055.81;21083948;28;20113;-68
2023/09/04 19:35:42;;;;;;;2.13;1.60;;;;;;;21.42;82.38;102048.94;21082982;28;19920;-68
2023/09/04 19:45:43;;;;;;;2.20;1.63;;;;;;;21.40;81.87;102030.09;21080072;28;20055;-69
2023/09/04 19:55:45;;;;;;;1.40;1.30;;;;;;;21.36;81.47;102022.38;21085075;28;20484;-69
2023/09/04 20:05:47;;;;;;;3.05;1.83;;;;;;;21.34;83.67;102022.50;21090880;28;20059;-69
2023/09/04 20:15:49;;;;;;;2.90;1.60;;;;;;;21.33;83.69;102001.81;21140712;28;20437;-69
2023/09/04 20:25:51;;;;;;;2.60;1.83;;;;;;;21.31;83.73;102009.22;21104793;28;20135;-69
2023/09/04 20:35:53;;;;;;;2.20;1.50;;;;;;;21.30;83.58;101996.66;21082875;28;20068;-69
2023/09/04 20:45:54;;;;;;;2.25;1.50;;;;;;;21.26;83.47;102017.75;21084265;28;20050;-69
2023/09/04 20:55:56;;;;;;;2.67;1.60;;;;;;;21.24;83.33;102025.16;21101424;28;20044;-70
2023/09/04 21:05:59;;;;;;;3.08;1.60;;;;;;;21.22;82.89;102020.84;21099841;28;20048;-69
2023/09/04 23:30:45;;;;;;;1.98;1.70;;;;;;;20.88;83.68;101954.22;21109388;28;20510;-69
2023/09/04 23:51:08;;;;;;;2.10;1.27;;;;;;;20.87;83.11;101941.66;21110313;28;20072;-69
